sensor_id;sensor_type;location;lat;lon;timestamp;P1;durP1;ratioP1;P2;durP2;ratioP2
62052;SDS011;48300;52.902;6.534;2023-03-23T00:02:28;12.68;;;7.47;;
62052;SDS011;48300;52.902;6.534;2023-03-23T00:04:54;9.60;;;7.13;;
62052;SDS011;48300;52.902;6.534;2023-03-23T00:07:21;14.70;;;7.95;;
62052;SDS011;48300;52.902;6.534;2023-03-23T00:09:48;11.77;;;7.40;;
62052;SDS011;48300;52.902;6.534;2023-03-23T00:12:18;18.05;;;7.25;;
62052;SDS011;48300;52.902;6.534;2023-03-23T00:14:44;13.45;;;7.22;;
62052;SDS011;48300;52.902;6.534;2023-03-23T00:17:10;12.65;;;7.00;;
62052;SDS011;48300;52.902;6.534;2023-03-23T00:19:39;12.20;;;6.88;;
62052;SDS011;48300;52.902;6.534;2023-03-23T00:22:13;12.68;;;7.35;;
62052;SDS011;48300;52.902;6.534;2023-03-23T00:24:41;15.80;;;7.45;;
62052;SDS011;48300;52.902;6.534;2023-03-23T00:27:07;13.90;;;6.43;;
62052;SDS011;48300;52.902;6.534;2023-03-23T00:29:38;11.85;;;5.97;;
62052;SDS011;48300;52.902;6.534;2023-03-23T00:32:05;12.03;;;6.40;;
62052;SDS011;48300;52.902;6.534;2023-03-23T00:34:32;12.35;;;6.13;;
62052;SDS011;48300;52.902;6.534;2023-03-23T00:36:59;9.68;;;5.95;;
62052;SDS011;48300;52.902;6.534;2023-03-23T00:39:26;15.27;;;6.63;;
62052;SDS011;48300;52.902;6.534;2023-03-23T00:41:52;7.70;;;4.93;;
62052;SDS011;48300;52.902;6.534;2023-03-23T00:44:19;9.57;;;5.82;;
62052;SDS011;48300;52.902;6.534;2023-03-23T00:46:48;9.10;;;5.30;;
62052;SDS011;48300;52.902;6.534;2023-03-23T00:49:16;11.05;;;6.13;;
62052;SDS011;48300;52.902;6.534;2023-03-23T00:51:43;12.60;;;5.60;;
62052;SDS011;48300;52.902;6.534;2023-03-23T00:54:09;10.00;;;5.50;;
62052;SDS011;48300;52.902;6.534;2023-03-23T00:56:36;10.07;;;5.05;;
62052;SDS011;48300;52.902;6.534;2023-03-23T00:59:04;7.97;;;4.70;;
62052;SDS011;48300;52.902;6.534;2023-03-23T01:01:30;8.68;;;4.70;;
62052;SDS011;48300;52.902;6.534;2023-03-23T01:03:58;13.30;;;4.85;;
62052;SDS011;48300;52.902;6.534;2023-03-23T01:06:30;10.52;;;4.60;;
62052;SDS011;48300;52.902;6.534;2023-03-23T01:09:14;8.55;;;4.50;;
62052;SDS011;48300;52.902;6.534;2023-03-23T01:11:53;10.93;;;3.90;;
62052;SDS011;48300;52.902;6.534;2023-03-23T01:14:29;11.13;;;4.40;;
62052;SDS011;48300;52.902;6.534;2023-03-23T01:17:05;8.43;;;4.00;;
62052;SDS011;48300;52.902;6.534;2023-03-23T01:19:42;8.60;;;4.72;;
62052;SDS011;48300;52.902;6.534;2023-03-23T01:22:18;8.63;;;4.65;;
62052;SDS011;48300;52.902;6.534;2023-03-23T01:24:54;9.20;;;3.70;;
62052;SDS011;48300;52.902;6.534;2023-03-23T01:27:31;7.57;;;3.65;;
62052;SDS011;48300;52.902;6.534;2023-03-23T01:30:08;9.75;;;3.97;;
62052;SDS011;48300;52.902;6.534;2023-03-23T01:32:47;9.82;;;3.15;;
62052;SDS011;48300;52.902;6.534;2023-03-23T01:35:23;8.25;;;3.58;;
62052;SDS011;48300;52.902;6.534;2023-03-23T01:37:59;7.45;;;3.17;;
62052;SDS011;48300;52.902;6.534;2023-03-23T01:40:44;9.15;;;4.45;;
62052;SDS011;48300;52.902;6.534;2023-03-23T01:43:11;11.02;;;3.40;;
62052;SDS011;48300;52.902;6.534;2023-03-23T01:45:38;7.85;;;3.28;;
62052;SDS011;48300;52.902;6.534;2023-03-23T01:48:13;8.02;;;3.00;;
62052;SDS011;48300;52.902;6.534;2023-03-23T01:50:56;10.13;;;3.50;;
62052;SDS011;48300;52.902;6.534;2023-03-23T01:53:24;6.85;;;3.30;;
62052;SDS011;48300;52.902;6.534;2023-03-23T01:55:52;8.35;;;2.97;;
62052;SDS011;48300;52.902;6.534;2023-03-23T01:58:19;9.50;;;3.03;;
62052;SDS011;48300;52.902;6.534;2023-03-23T02:03:14;7.32;;;3.05;;
62052;SDS011;48300;52.902;6.534;2023-03-23T02:05:42;10.05;;;3.05;;
62052;SDS011;48300;52.902;6.534;2023-03-23T02:08:08;6.88;;;2.45;;
62052;SDS011;48300;52.902;6.534;2023-03-23T02:10:36;5.75;;;3.50;;
62052;SDS011;48300;52.902;6.534;2023-03-23T02:13:03;7.93;;;3.03;;
62052;SDS011;48300;52.902;6.534;2023-03-23T02:15:34;7.15;;;3.03;;
62052;SDS011;48300;52.902;6.534;2023-03-23T02:18:08;7.97;;;3.33;;
62052;SDS011;48300;52.902;6.534;2023-03-23T02:20:41;5.35;;;2.75;;
62052;SDS011;48300;52.902;6.534;2023-03-23T02:23:13;9.10;;;3.00;;
62052;SDS011;48300;52.902;6.534;2023-03-23T02:25:53;8.23;;;3.33;;
62052;SDS011;48300;52.902;6.534;2023-03-23T02:28:26;6.13;;;2.63;;
62052;SDS011;48300;52.902;6.534;2023-03-23T02:35:53;6.20;;;2.53;;
62052;SDS011;48300;52.902;6.534;2023-03-23T02:38:23;6.55;;;2.83;;
62052;SDS011;48300;52.902;6.534;2023-03-23T02:40:52;6.43;;;3.22;;
62052;SDS011;48300;52.902;6.534;2023-03-23T02:43:21;7.13;;;2.92;;
62052;SDS011;48300;52.902;6.534;2023-03-23T02:45:48;5.38;;;2.35;;
62052;SDS011;48300;52.902;6.534;2023-03-23T02:48:16;12.63;;;2.93;;
62052;SDS011;48300;52.902;6.534;2023-03-23T02:50:45;5.97;;;2.58;;
62052;SDS011;48300;52.902;6.534;2023-03-23T02:53:12;8.73;;;2.83;;
62052;SDS011;48300;52.902;6.534;2023-03-23T02:55:39;12.63;;;3.05;;
62052;SDS011;48300;52.902;6.534;2023-03-23T02:58:08;6.82;;;2.95;;
62052;SDS011;48300;52.902;6.534;2023-03-23T03:00:34;6.90;;;2.90;;
62052;SDS011;48300;52.902;6.534;2023-03-23T03:03:01;6.88;;;2.45;;
62052;SDS011;48300;52.902;6.534;2023-03-23T03:07:58;7.30;;;2.53;;
62052;SDS011;48300;52.902;6.534;2023-03-23T03:10:37;8.57;;;2.50;;
62052;SDS011;48300;52.902;6.534;2023-03-23T03:13:29;7.07;;;2.72;;
62052;SDS011;48300;52.902;6.534;2023-03-23T03:18:47;8.02;;;3.00;;
62052;SDS011;48300;52.902;6.534;2023-03-23T03:21:17;7.78;;;2.35;;
62052;SDS011;48300;52.902;6.534;2023-03-23T03:23:45;9.75;;;2.50;;
62052;SDS011;48300;52.902;6.534;2023-03-23T03:26:14;10.82;;;2.70;;
62052;SDS011;48300;52.902;6.534;2023-03-23T03:28:43;7.60;;;2.70;;
62052;SDS011;48300;52.902;6.534;2023-03-23T03:31:13;8.30;;;2.95;;
62052;SDS011;48300;52.902;6.534;2023-03-23T03:33:43;4.82;;;2.80;;
62052;SDS011;48300;52.902;6.534;2023-03-23T03:36:16;6.13;;;2.75;;
62052;SDS011;48300;52.902;6.534;2023-03-23T03:41:29;9.52;;;3.00;;
62052;SDS011;48300;52.902;6.534;2023-03-23T03:44:05;5.38;;;2.90;;
62052;SDS011;48300;52.902;6.534;2023-03-23T03:46:42;8.70;;;3.33;;
62052;SDS011;48300;52.902;6.534;2023-03-23T03:49:14;7.40;;;3.03;;
62052;SDS011;48300;52.902;6.534;2023-03-23T03:51:41;5.75;;;3.00;;
62052;SDS011;48300;52.902;6.534;2023-03-23T03:54:07;8.18;;;3.08;;
62052;SDS011;48300;52.902;6.534;2023-03-23T03:56:33;7.75;;;3.22;;
62052;SDS011;48300;52.902;6.534;2023-03-23T03:59:03;7.15;;;3.17;;
62052;SDS011;48300;52.902;6.534;2023-03-23T04:01:29;6.40;;;2.78;;
62052;SDS011;48300;52.902;6.534;2023-03-23T04:03:56;8.30;;;3.38;;
62052;SDS011;48300;52.902;6.534;2023-03-23T04:06:22;8.48;;;3.33;;
62052;SDS011;48300;52.902;6.534;2023-03-23T04:08:48;5.72;;;3.33;;
62052;SDS011;48300;52.902;6.534;2023-03-23T04:11:15;6.70;;;3.42;;
62052;SDS011;48300;52.902;6.534;2023-03-23T04:13:41;10.15;;;3.83;;
62052;SDS011;48300;52.902;6.534;2023-03-23T04:16:07;10.07;;;3.92;;
62052;SDS011;48300;52.902;6.534;2023-03-23T04:18:34;8.68;;;3.80;;
62052;SDS011;48300;52.902;6.534;2023-03-23T04:21:01;7.57;;;3.58;;
62052;SDS011;48300;52.902;6.534;2023-03-23T04:23:28;8.57;;;3.38;;
62052;SDS011;48300;52.902;6.534;2023-03-23T04:25:56;16.20;;;3.80;;
62052;SDS011;48300;52.902;6.534;2023-03-23T04:28:24;6.97;;;3.35;;
62052;SDS011;48300;52.902;6.534;2023-03-23T04:30:51;6.28;;;3.42;;
62052;SDS011;48300;52.902;6.534;2023-03-23T04:33:19;5.85;;;4.00;;
62052;SDS011;48300;52.902;6.534;2023-03-23T04:35:46;12.32;;;3.75;;
62052;SDS011;48300;52.902;6.534;2023-03-23T04:38:13;8.85;;;4.05;;
62052;SDS011;48300;52.902;6.534;2023-03-23T04:40:40;6.68;;;3.58;;
62052;SDS011;48300;52.902;6.534;2023-03-23T04:43:07;13.43;;;4.00;;
62052;SDS011;48300;52.902;6.534;2023-03-23T04:45:34;8.52;;;4.40;;
62052;SDS011;48300;52.902;6.534;2023-03-23T04:48:03;10.48;;;4.72;;
62052;SDS011;48300;52.902;6.534;2023-03-23T04:50:31;9.70;;;4.00;;
62052;SDS011;48300;52.902;6.534;2023-03-23T04:52:59;11.15;;;4.82;;
62052;SDS011;48300;52.902;6.534;2023-03-23T04:55:29;8.75;;;2.75;;
62052;SDS011;48300;52.902;6.534;2023-03-23T04:57:57;7.53;;;1.50;;
62052;SDS011;48300;52.902;6.534;2023-03-23T05:00:33;4.82;;;1.40;;
62052;SDS011;48300;52.902;6.534;2023-03-23T05:03:10;7.25;;;1.45;;
62052;SDS011;48300;52.902;6.534;2023-03-23T05:08:21;2.85;;;0.95;;
62052;SDS011;48300;52.902;6.534;2023-03-23T05:10:52;5.70;;;1.10;;
62052;SDS011;48300;52.902;6.534;2023-03-23T05:13:18;5.82;;;1.35;;
62052;SDS011;48300;52.902;6.534;2023-03-23T05:15:45;6.90;;;0.85;;
62052;SDS011;48300;52.902;6.534;2023-03-23T05:18:11;4.03;;;1.20;;
62052;SDS011;48300;52.902;6.534;2023-03-23T05:20:37;3.00;;;1.02;;
62052;SDS011;48300;52.902;6.534;2023-03-23T05:23:04;6.20;;;1.20;;
62052;SDS011;48300;52.902;6.534;2023-03-23T05:25:30;3.53;;;1.17;;
62052;SDS011;48300;52.902;6.534;2023-03-23T05:28:02;10.20;;;1.75;;
62052;SDS011;48300;52.902;6.534;2023-03-23T05:30:28;9.57;;;1.70;;
62052;SDS011;48300;52.902;6.534;2023-03-23T05:32:54;8.05;;;1.75;;
62052;SDS011;48300;52.902;6.534;2023-03-23T05:35:21;9.02;;;1.75;;
62052;SDS011;48300;52.902;6.534;2023-03-23T05:37:47;9.45;;;1.73;;
62052;SDS011;48300;52.902;6.534;2023-03-23T05:40:13;8.30;;;1.70;;
62052;SDS011;48300;52.902;6.534;2023-03-23T05:42:40;9.35;;;1.95;;
62052;SDS011;48300;52.902;6.534;2023-03-23T05:45:09;8.15;;;1.55;;
62052;SDS011;48300;52.902;6.534;2023-03-23T05:47:58;9.70;;;1.58;;
62052;SDS011;48300;52.902;6.534;2023-03-23T05:50:35;8.68;;;1.85;;
62052;SDS011;48300;52.902;6.534;2023-03-23T05:53:11;7.50;;;1.50;;
62052;SDS011;48300;52.902;6.534;2023-03-23T05:55:48;6.45;;;1.27;;
62052;SDS011;48300;52.902;6.534;2023-03-23T05:58:25;8.23;;;1.38;;
62052;SDS011;48300;52.902;6.534;2023-03-23T06:01:06;7.68;;;1.52;;
62052;SDS011;48300;52.902;6.534;2023-03-23T06:03:46;9.63;;;1.58;;
62052;SDS011;48300;52.902;6.534;2023-03-23T06:06:22;9.85;;;1.63;;
62052;SDS011;48300;52.902;6.534;2023-03-23T06:08:48;14.35;;;2.08;;
62052;SDS011;48300;52.902;6.534;2023-03-23T06:11:15;8.70;;;1.40;;
62052;SDS011;48300;52.902;6.534;2023-03-23T06:13:42;8.07;;;1.50;;
62052;SDS011;48300;52.902;6.534;2023-03-23T06:16:09;9.82;;;1.88;;
62052;SDS011;48300;52.902;6.534;2023-03-23T06:18:35;8.00;;;1.48;;
62052;SDS011;48300;52.902;6.534;2023-03-23T06:21:06;11.63;;;2.25;;
62052;SDS011;48300;52.902;6.534;2023-03-23T06:23:33;7.15;;;1.25;;
62052;SDS011;48300;52.902;6.534;2023-03-23T06:26:00;13.82;;;1.20;;
62052;SDS011;48300;52.902;6.534;2023-03-23T06:28:27;11.48;;;2.40;;
62052;SDS011;48300;52.902;6.534;2023-03-23T06:30:54;8.60;;;1.63;;
62052;SDS011;48300;52.902;6.534;2023-03-23T06:33:20;6.78;;;1.27;;
62052;SDS011;48300;52.902;6.534;2023-03-23T06:35:46;10.00;;;2.35;;
62052;SDS011;48300;52.902;6.534;2023-03-23T06:38:14;12.00;;;2.35;;
62052;SDS011;48300;52.902;6.534;2023-03-23T06:40:41;14.35;;;1.90;;
62052;SDS011;48300;52.902;6.534;2023-03-23T06:43:11;8.75;;;1.58;;
62052;SDS011;48300;52.902;6.534;2023-03-23T06:45:37;12.55;;;1.65;;
62052;SDS011;48300;52.902;6.534;2023-03-23T06:48:03;12.93;;;2.22;;
62052;SDS011;48300;52.902;6.534;2023-03-23T06:50:29;14.48;;;2.55;;
62052;SDS011;48300;52.902;6.534;2023-03-23T06:52:56;10.57;;;2.72;;
62052;SDS011;48300;52.902;6.534;2023-03-23T06:55:22;14.68;;;2.63;;
62052;SDS011;48300;52.902;6.534;2023-03-23T06:57:48;17.63;;;2.22;;
62052;SDS011;48300;52.902;6.534;2023-03-23T07:00:14;16.25;;;2.42;;
62052;SDS011;48300;52.902;6.534;2023-03-23T07:02:41;21.33;;;2.83;;
62052;SDS011;48300;52.902;6.534;2023-03-23T07:05:08;14.75;;;3.20;;
62052;SDS011;48300;52.902;6.534;2023-03-23T07:07:36;13.38;;;2.40;;
62052;SDS011;48300;52.902;6.534;2023-03-23T07:10:03;20.45;;;2.65;;
62052;SDS011;48300;52.902;6.534;2023-03-23T07:12:30;20.33;;;2.70;;
62052;SDS011;48300;52.902;6.534;2023-03-23T07:14:56;23.30;;;2.75;;
62052;SDS011;48300;52.902;6.534;2023-03-23T07:17:22;21.35;;;3.30;;
62052;SDS011;48300;52.902;6.534;2023-03-23T07:19:48;16.70;;;2.70;;
62052;SDS011;48300;52.902;6.534;2023-03-23T07:22:14;16.10;;;2.47;;
62052;SDS011;48300;52.902;6.534;2023-03-23T07:24:41;19.27;;;2.55;;
62052;SDS011;48300;52.902;6.534;2023-03-23T07:27:07;20.88;;;3.40;;
62052;SDS011;48300;52.902;6.534;2023-03-23T07:29:34;16.38;;;1.90;;
62052;SDS011;48300;52.902;6.534;2023-03-23T07:32:03;20.20;;;2.83;;
62052;SDS011;48300;52.902;6.534;2023-03-23T07:34:30;18.35;;;2.08;;
62052;SDS011;48300;52.902;6.534;2023-03-23T07:36:57;17.20;;;3.38;;
62052;SDS011;48300;52.902;6.534;2023-03-23T07:39:23;14.35;;;2.13;;
62052;SDS011;48300;52.902;6.534;2023-03-23T07:41:50;15.98;;;2.75;;
62052;SDS011;48300;52.902;6.534;2023-03-23T07:44:16;7.55;;;2.05;;
62052;SDS011;48300;52.902;6.534;2023-03-23T07:46:42;15.40;;;2.40;;
62052;SDS011;48300;52.902;6.534;2023-03-23T07:49:09;14.18;;;3.08;;
62052;SDS011;48300;52.902;6.534;2023-03-23T07:51:35;14.23;;;2.13;;
62052;SDS011;48300;52.902;6.534;2023-03-23T07:54:03;20.67;;;3.47;;
62052;SDS011;48300;52.902;6.534;2023-03-23T07:56:30;16.83;;;2.60;;
62052;SDS011;48300;52.902;6.534;2023-03-23T07:58:56;21.10;;;3.78;;
62052;SDS011;48300;52.902;6.534;2023-03-23T08:01:23;32.63;;;4.25;;
62052;SDS011;48300;52.902;6.534;2023-03-23T08:03:49;21.60;;;2.60;;
62052;SDS011;48300;52.902;6.534;2023-03-23T08:06:17;16.15;;;3.08;;
62052;SDS011;48300;52.902;6.534;2023-03-23T08:08:43;19.15;;;3.75;;
62052;SDS011;48300;52.902;6.534;2023-03-23T08:11:11;14.27;;;3.30;;
62052;SDS011;48300;52.902;6.534;2023-03-23T08:13:38;31.30;;;3.45;;
62052;SDS011;48300;52.902;6.534;2023-03-23T08:16:05;22.95;;;3.22;;
62052;SDS011;48300;52.902;6.534;2023-03-23T08:18:31;19.75;;;2.97;;
62052;SDS011;48300;52.902;6.534;2023-03-23T08:23:26;29.38;;;4.60;;
62052;SDS011;48300;52.902;6.534;2023-03-23T08:25:52;23.35;;;2.78;;
62052;SDS011;48300;52.902;6.534;2023-03-23T08:28:18;30.60;;;4.07;;
62052;SDS011;48300;52.902;6.534;2023-03-23T08:30:44;25.42;;;4.13;;
62052;SDS011;48300;52.902;6.534;2023-03-23T08:33:11;23.02;;;3.30;;
62052;SDS011;48300;52.902;6.534;2023-03-23T08:35:39;22.57;;;3.63;;
62052;SDS011;48300;52.902;6.534;2023-03-23T08:38:06;25.75;;;3.42;;
62052;SDS011;48300;52.902;6.534;2023-03-23T08:40:32;18.92;;;2.88;;
62052;SDS011;48300;52.902;6.534;2023-03-23T08:42:58;20.60;;;2.67;;
62052;SDS011;48300;52.902;6.534;2023-03-23T08:45:24;25.17;;;3.25;;
62052;SDS011;48300;52.902;6.534;2023-03-23T08:47:51;26.40;;;3.53;;
62052;SDS011;48300;52.902;6.534;2023-03-23T08:50:21;21.58;;;3.03;;
62052;SDS011;48300;52.902;6.534;2023-03-23T08:52:48;22.10;;;3.42;;
62052;SDS011;48300;52.902;6.534;2023-03-23T08:55:15;16.77;;;3.03;;
62052;SDS011;48300;52.902;6.534;2023-03-23T08:57:42;19.10;;;3.00;;
62052;SDS011;48300;52.902;6.534;2023-03-23T09:00:11;22.77;;;2.95;;
62052;SDS011;48300;52.902;6.534;2023-03-23T09:02:40;21.00;;;2.95;;
62052;SDS011;48300;52.902;6.534;2023-03-23T09:05:07;18.05;;;2.80;;
62052;SDS011;48300;52.902;6.534;2023-03-23T09:07:35;22.08;;;3.38;;
62052;SDS011;48300;52.902;6.534;2023-03-23T09:10:01;24.58;;;4.10;;
62052;SDS011;48300;52.902;6.534;2023-03-23T09:12:27;24.63;;;4.03;;
62052;SDS011;48300;52.902;6.534;2023-03-23T09:14:55;25.55;;;3.33;;
62052;SDS011;48300;52.902;6.534;2023-03-23T09:17:21;21.33;;;3.72;;
62052;SDS011;48300;52.902;6.534;2023-03-23T09:19:48;21.35;;;3.30;;
62052;SDS011;48300;52.902;6.534;2023-03-23T09:22:14;18.30;;;3.05;;
62052;SDS011;48300;52.902;6.534;2023-03-23T09:24:44;23.77;;;3.47;;
62052;SDS011;48300;52.902;6.534;2023-03-23T09:27:11;29.85;;;4.00;;
62052;SDS011;48300;52.902;6.534;2023-03-23T09:29:37;18.98;;;2.60;;
62052;SDS011;48300;52.902;6.534;2023-03-23T09:32:04;16.52;;;2.70;;
62052;SDS011;48300;52.902;6.534;2023-03-23T09:34:30;22.45;;;3.28;;
62052;SDS011;48300;52.902;6.534;2023-03-23T09:37:00;25.35;;;3.15;;
62052;SDS011;48300;52.902;6.534;2023-03-23T09:39:29;22.60;;;2.47;;
62052;SDS011;48300;52.902;6.534;2023-03-23T09:44:30;17.33;;;3.30;;
62052;SDS011;48300;52.902;6.534;2023-03-23T09:49:41;15.00;;;2.42;;
62052;SDS011;48300;52.902;6.534;2023-03-23T09:52:10;25.10;;;3.72;;
62052;SDS011;48300;52.902;6.534;2023-03-23T09:57:03;22.42;;;2.40;;
62052;SDS011;48300;52.902;6.534;2023-03-23T09:59:34;18.80;;;2.42;;
62052;SDS011;48300;52.902;6.534;2023-03-23T10:02:16;20.08;;;2.35;;
62052;SDS011;48300;52.902;6.534;2023-03-23T10:04:45;18.42;;;2.35;;
62052;SDS011;48300;52.902;6.534;2023-03-23T10:07:14;22.70;;;2.83;;
62052;SDS011;48300;52.902;6.534;2023-03-23T10:09:41;13.90;;;2.72;;
62052;SDS011;48300;52.902;6.534;2023-03-23T10:14:48;11.50;;;2.40;;
62052;SDS011;48300;52.902;6.534;2023-03-23T10:19:47;23.70;;;2.90;;
62052;SDS011;48300;52.902;6.534;2023-03-23T10:22:15;20.08;;;3.58;;
62052;SDS011;48300;52.902;6.534;2023-03-23T10:24:50;12.57;;;2.33;;
62052;SDS011;48300;52.902;6.534;2023-03-23T10:29:49;12.98;;;3.35;;
62052;SDS011;48300;52.902;6.534;2023-03-23T10:32:18;13.20;;;2.58;;
62052;SDS011;48300;52.902;6.534;2023-03-23T10:34:49;10.68;;;1.88;;
62052;SDS011;48300;52.902;6.534;2023-03-23T10:37:18;15.65;;;2.10;;
62052;SDS011;48300;52.902;6.534;2023-03-23T10:39:48;20.42;;;2.85;;
62052;SDS011;48300;52.902;6.534;2023-03-23T10:42:24;12.15;;;2.22;;
62052;SDS011;48300;52.902;6.534;2023-03-23T10:44:51;17.95;;;2.13;;
62052;SDS011;48300;52.902;6.534;2023-03-23T10:47:17;9.25;;;2.10;;
62052;SDS011;48300;52.902;6.534;2023-03-23T10:49:45;9.95;;;2.38;;
62052;SDS011;48300;52.902;6.534;2023-03-23T10:55:01;21.42;;;2.20;;
62052;SDS011;48300;52.902;6.534;2023-03-23T10:57:29;8.90;;;1.70;;
62052;SDS011;48300;52.902;6.534;2023-03-23T10:59:58;8.88;;;1.70;;
62052;SDS011;48300;52.902;6.534;2023-03-23T11:02:26;12.55;;;1.60;;
62052;SDS011;48300;52.902;6.534;2023-03-23T11:04:55;12.15;;;2.03;;
62052;SDS011;48300;52.902;6.534;2023-03-23T11:07:29;12.52;;;1.73;;
62052;SDS011;48300;52.902;6.534;2023-03-23T11:09:56;10.50;;;1.67;;
62052;SDS011;48300;52.902;6.534;2023-03-23T11:12:23;9.55;;;2.00;;
62052;SDS011;48300;52.902;6.534;2023-03-23T11:14:51;12.20;;;2.38;;
62052;SDS011;48300;52.902;6.534;2023-03-23T11:17:21;9.15;;;1.80;;
62052;SDS011;48300;52.902;6.534;2023-03-23T11:19:48;7.90;;;2.15;;
62052;SDS011;48300;52.902;6.534;2023-03-23T11:22:17;6.95;;;1.25;;
62052;SDS011;48300;52.902;6.534;2023-03-23T11:24:47;11.60;;;1.92;;
62052;SDS011;48300;52.902;6.534;2023-03-23T11:27:14;12.88;;;1.85;;
62052;SDS011;48300;52.902;6.534;2023-03-23T11:29:48;17.70;;;2.15;;
62052;SDS011;48300;52.902;6.534;2023-03-23T11:32:15;15.68;;;1.85;;
62052;SDS011;48300;52.902;6.534;2023-03-23T11:37:10;9.25;;;1.90;;
62052;SDS011;48300;52.902;6.534;2023-03-23T11:39:48;14.82;;;2.40;;
62052;SDS011;48300;52.902;6.534;2023-03-23T11:42:19;15.77;;;2.40;;
62052;SDS011;48300;52.902;6.534;2023-03-23T11:44:45;11.70;;;1.60;;
62052;SDS011;48300;52.902;6.534;2023-03-23T11:47:16;11.43;;;1.60;;
62052;SDS011;48300;52.902;6.534;2023-03-23T11:49:48;8.82;;;2.05;;
62052;SDS011;48300;52.902;6.534;2023-03-23T11:52:40;7.63;;;2.80;;
62052;SDS011;48300;52.902;6.534;2023-03-23T11:55:14;14.00;;;2.92;;
62052;SDS011;48300;52.902;6.534;2023-03-23T11:57:42;15.30;;;2.55;;
62052;SDS011;48300;52.902;6.534;2023-03-23T12:00:13;10.30;;;1.73;;
62052;SDS011;48300;52.902;6.534;2023-03-23T12:02:42;11.85;;;2.85;;
62052;SDS011;48300;52.902;6.534;2023-03-23T12:07:46;13.23;;;1.92;;
62052;SDS011;48300;52.902;6.534;2023-03-23T12:10:20;14.32;;;2.97;;
62052;SDS011;48300;52.902;6.534;2023-03-23T12:12:59;10.80;;;1.55;;
62052;SDS011;48300;52.902;6.534;2023-03-23T12:15:38;7.05;;;1.92;;
62052;SDS011;48300;52.902;6.534;2023-03-23T12:20:42;11.55;;;2.28;;
62052;SDS011;48300;52.902;6.534;2023-03-23T12:23:20;12.82;;;1.80;;
62052;SDS011;48300;52.902;6.534;2023-03-23T12:30:42;12.27;;;1.63;;
62052;SDS011;48300;52.902;6.534;2023-03-23T12:33:12;15.13;;;1.98;;
62052;SDS011;48300;52.902;6.534;2023-03-23T12:35:44;14.65;;;2.20;;
62052;SDS011;48300;52.902;6.534;2023-03-23T12:38:17;7.25;;;2.13;;
62052;SDS011;48300;52.902;6.534;2023-03-23T12:45:55;13.23;;;1.80;;
62052;SDS011;48300;52.902;6.534;2023-03-23T12:48:26;9.55;;;1.73;;
62052;SDS011;48300;52.902;6.534;2023-03-23T12:51:03;9.55;;;2.05;;
62052;SDS011;48300;52.902;6.534;2023-03-23T12:53:34;13.98;;;1.83;;
62052;SDS011;48300;52.902;6.534;2023-03-23T12:56:23;13.68;;;2.05;;
62052;SDS011;48300;52.902;6.534;2023-03-23T12:58:53;17.08;;;2.70;;
62052;SDS011;48300;52.902;6.534;2023-03-23T13:01:25;14.20;;;2.33;;
62052;SDS011;48300;52.902;6.534;2023-03-23T13:03:54;13.45;;;2.20;;
62052;SDS011;48300;52.902;6.534;2023-03-23T13:11:31;12.50;;;1.92;;
62052;SDS011;48300;52.902;6.534;2023-03-23T13:14:01;19.70;;;2.50;;
62052;SDS011;48300;52.902;6.534;2023-03-23T13:16:39;15.82;;;1.85;;
62052;SDS011;48300;52.902;6.534;2023-03-23T13:19:11;13.70;;;2.25;;
62052;SDS011;48300;52.902;6.534;2023-03-23T13:21:42;13.75;;;2.20;;
62052;SDS011;48300;52.902;6.534;2023-03-23T13:24:11;10.73;;;1.73;;
62052;SDS011;48300;52.902;6.534;2023-03-23T13:26:40;13.98;;;2.10;;
62052;SDS011;48300;52.902;6.534;2023-03-23T13:29:11;9.80;;;1.98;;
62052;SDS011;48300;52.902;6.534;2023-03-23T13:31:39;8.25;;;2.22;;
62052;SDS011;48300;52.902;6.534;2023-03-23T13:34:15;13.43;;;2.53;;
62052;SDS011;48300;52.902;6.534;2023-03-23T13:36:43;12.95;;;2.55;;
62052;SDS011;48300;52.902;6.534;2023-03-23T13:39:17;13.63;;;1.87;;
62052;SDS011;48300;52.902;6.534;2023-03-23T13:41:46;9.38;;;1.40;;
62052;SDS011;48300;52.902;6.534;2023-03-23T13:44:17;16.73;;;1.98;;
62052;SDS011;48300;52.902;6.534;2023-03-23T13:46:53;10.15;;;1.67;;
62052;SDS011;48300;52.902;6.534;2023-03-23T13:49:20;17.92;;;2.38;;
62052;SDS011;48300;52.902;6.534;2023-03-23T13:51:52;9.90;;;1.58;;
62052;SDS011;48300;52.902;6.534;2023-03-23T13:54:23;10.10;;;1.95;;
62052;SDS011;48300;52.902;6.534;2023-03-23T13:56:53;7.95;;;1.42;;
62052;SDS011;48300;52.902;6.534;2023-03-23T14:01:54;11.10;;;1.45;;
62052;SDS011;48300;52.902;6.534;2023-03-23T14:06:48;21.45;;;2.92;;
62052;SDS011;48300;52.902;6.534;2023-03-23T14:09:16;15.65;;;2.33;;
62052;SDS011;48300;52.902;6.534;2023-03-23T14:11:47;11.57;;;1.50;;
62052;SDS011;48300;52.902;6.534;2023-03-23T14:14:17;12.68;;;1.70;;
62052;SDS011;48300;52.902;6.534;2023-03-23T14:16:48;7.72;;;1.70;;
62052;SDS011;48300;52.902;6.534;2023-03-23T14:19:18;12.93;;;2.03;;
62052;SDS011;48300;52.902;6.534;2023-03-23T14:21:49;19.77;;;2.90;;
62052;SDS011;48300;52.902;6.534;2023-03-23T14:24:16;19.95;;;2.65;;
62052;SDS011;48300;52.902;6.534;2023-03-23T14:26:43;11.20;;;1.73;;
62052;SDS011;48300;52.902;6.534;2023-03-23T14:29:11;11.55;;;1.77;;
62052;SDS011;48300;52.902;6.534;2023-03-23T14:31:38;10.67;;;2.20;;
62052;SDS011;48300;52.902;6.534;2023-03-23T14:36:45;14.80;;;2.10;;
62052;SDS011;48300;52.902;6.534;2023-03-23T14:41:48;11.75;;;1.50;;
62052;SDS011;48300;52.902;6.534;2023-03-23T14:44:17;15.45;;;2.08;;
62052;SDS011;48300;52.902;6.534;2023-03-23T14:46:44;11.95;;;2.17;;
62052;SDS011;48300;52.902;6.534;2023-03-23T14:49:12;18.38;;;2.50;;
62052;SDS011;48300;52.902;6.534;2023-03-23T14:54:07;13.02;;;2.17;;
62052;SDS011;48300;52.902;6.534;2023-03-23T14:56:35;15.57;;;3.08;;
62052;SDS011;48300;52.902;6.534;2023-03-23T14:59:03;23.23;;;2.50;;
62052;SDS011;48300;52.902;6.534;2023-03-23T15:01:31;10.45;;;1.40;;
62052;SDS011;48300;52.902;6.534;2023-03-23T15:04:00;16.55;;;2.40;;
62052;SDS011;48300;52.902;6.534;2023-03-23T15:06:29;16.02;;;2.05;;
62052;SDS011;48300;52.902;6.534;2023-03-23T15:08:57;9.15;;;1.63;;
62052;SDS011;48300;52.902;6.534;2023-03-23T15:11:26;16.60;;;2.03;;
62052;SDS011;48300;52.902;6.534;2023-03-23T15:13:54;6.38;;;1.67;;
62052;SDS011;48300;52.902;6.534;2023-03-23T15:18:55;11.23;;;1.98;;
62052;SDS011;48300;52.902;6.534;2023-03-23T15:21:24;13.88;;;1.80;;
62052;SDS011;48300;52.902;6.534;2023-03-23T15:23:52;7.47;;;1.60;;
62052;SDS011;48300;52.902;6.534;2023-03-23T15:26:25;10.18;;;1.80;;
62052;SDS011;48300;52.902;6.534;2023-03-23T15:29:04;9.88;;;1.63;;
62052;SDS011;48300;52.902;6.534;2023-03-23T15:31:42;10.07;;;1.65;;
62052;SDS011;48300;52.902;6.534;2023-03-23T15:34:11;9.70;;;2.00;;
62052;SDS011;48300;52.902;6.534;2023-03-23T15:36:42;11.43;;;1.60;;
62052;SDS011;48300;52.902;6.534;2023-03-23T15:39:12;13.07;;;2.25;;
62052;SDS011;48300;52.902;6.534;2023-03-23T15:41:48;9.48;;;1.98;;
62052;SDS011;48300;52.902;6.534;2023-03-23T15:44:27;18.23;;;1.95;;
62052;SDS011;48300;52.902;6.534;2023-03-23T15:47:01;14.52;;;1.50;;
62052;SDS011;48300;52.902;6.534;2023-03-23T15:49:28;13.80;;;2.05;;
62052;SDS011;48300;52.902;6.534;2023-03-23T15:51:54;8.57;;;1.75;;
62052;SDS011;48300;52.902;6.534;2023-03-23T15:54:21;10.73;;;1.42;;
62052;SDS011;48300;52.902;6.534;2023-03-23T15:56:51;16.25;;;1.98;;
62052;SDS011;48300;52.902;6.534;2023-03-23T15:59:24;9.18;;;1.23;;
62052;SDS011;48300;52.902;6.534;2023-03-23T16:01:50;22.85;;;2.75;;
62052;SDS011;48300;52.902;6.534;2023-03-23T16:04:17;10.80;;;1.50;;
62052;SDS011;48300;52.902;6.534;2023-03-23T16:06:43;10.68;;;2.00;;
62052;SDS011;48300;52.902;6.534;2023-03-23T16:09:17;12.68;;;1.67;;
62052;SDS011;48300;52.902;6.534;2023-03-23T16:11:43;8.25;;;1.50;;